createdAt,value
2022-10-23T00:00:18.013Z,64.78
2022-10-23T00:02:45.168Z,65.32
2022-10-23T00:05:12.117Z,65.47
2022-10-23T00:07:38.879Z,65.68
2022-10-23T00:10:07.911Z,66.23
2022-10-23T00:12:34.841Z,66.04
2022-10-23T00:15:01.785Z,65.68
2022-10-23T00:17:28.445Z,64.71
2022-10-23T00:19:55.129Z,64.38
2022-10-23T00:22:22.106Z,64.32
2022-10-23T00:24:48.799Z,63.13
2022-10-23T00:27:16.797Z,63.04
2022-10-23T00:29:45.083Z,63.24
2022-10-23T00:32:11.847Z,64.31
2022-10-23T00:34:38.577Z,64.12
2022-10-23T00:37:05.378Z,64.48
2022-10-23T00:39:32.070Z,64.32
2022-10-23T00:41:59.087Z,64.66
2022-10-23T00:45:03.131Z,64.50
2022-10-23T00:47:31.141Z,64.68
2022-10-23T00:49:58.820Z,65.12
2022-10-23T00:52:25.508Z,65.76
2022-10-23T00:54:52.605Z,65.78
2022-10-23T00:57:19.358Z,65.97
2022-10-23T00:59:46.144Z,66.04
2022-10-23T01:02:13.215Z,66.42
2022-10-23T01:04:41.770Z,66.93
2022-10-23T01:07:15.133Z,66.97
2022-10-23T01:09:48.198Z,67.11
2022-10-23T01:12:20.989Z,66.87
2022-10-23T01:15:00.146Z,66.79
2022-10-23T01:17:34.208Z,66.62
2022-10-23T01:20:14.188Z,66.35
2022-10-23T01:23:05.540Z,65.75
2022-10-23T01:25:55.570Z,64.55
2022-10-23T01:28:29.538Z,64.43
2022-10-23T01:30:58.152Z,64.27
2022-10-23T01:33:35.285Z,64.14
2022-10-23T01:36:05.893Z,64.44
2022-10-23T01:38:41.219Z,65.50
2022-10-23T01:41:20.936Z,66.47
2022-10-23T01:43:54.643Z,66.52
2022-10-23T01:46:23.619Z,66.75
2022-10-23T01:48:53.201Z,67.13
2022-10-23T01:51:25.022Z,67.18
2022-10-23T01:53:57.263Z,66.90
2022-10-23T01:56:28.903Z,66.71
2022-10-23T01:59:00.831Z,67.14
2022-10-23T02:01:33.026Z,66.36
2022-10-23T02:04:03.286Z,65.78
2022-10-23T02:06:30.910Z,64.99
2022-10-23T02:08:57.755Z,64.51
2022-10-23T02:11:24.857Z,63.93
2022-10-23T02:14:01.207Z,63.75
2022-10-23T02:16:36.925Z,63.58
2022-10-23T02:19:12.819Z,64.23
2022-10-23T02:21:43.766Z,65.00
2022-10-23T02:24:13.723Z,66.18
2022-10-23T02:26:51.492Z,66.66
2022-10-23T02:29:26.479Z,66.89
2022-10-23T02:31:55.244Z,67.00
2022-10-23T02:34:22.942Z,66.30
2022-10-23T02:36:49.754Z,66.20
2022-10-23T02:39:20.127Z,65.87
2022-10-23T02:41:54.820Z,64.42
2022-10-23T02:44:34.054Z,64.46
2022-10-23T02:47:14.158Z,65.75
2022-10-23T02:49:50.697Z,66.50
2022-10-23T02:52:24.235Z,66.90
2022-10-23T02:55:05.202Z,66.75
2022-10-23T02:57:49.681Z,67.19
2022-10-23T03:00:20.323Z,66.98
2022-10-23T03:02:56.705Z,65.93
2022-10-23T03:05:27.213Z,65.60
2022-10-23T03:07:54.247Z,66.68
2022-10-23T03:10:21.233Z,66.85
2022-10-23T03:12:48.844Z,67.38
2022-10-23T03:15:17.814Z,67.71
2022-10-23T03:17:44.521Z,67.30
2022-10-23T03:20:11.525Z,67.37
2022-10-23T03:22:38.310Z,67.31
2022-10-23T03:25:07.831Z,67.27
2022-10-23T03:27:35.627Z,67.48
2022-10-23T03:30:06.186Z,67.01
2022-10-23T03:32:36.582Z,67.00
2022-10-23T03:35:03.741Z,67.20
2022-10-23T03:37:30.527Z,67.26
2022-10-23T03:39:57.311Z,66.99
2022-10-23T03:42:24.028Z,67.07
2022-10-23T03:44:50.714Z,66.55
2022-10-23T03:47:18.875Z,65.83
2022-10-23T03:49:46.963Z,66.46
2022-10-23T03:52:13.855Z,65.97
2022-10-23T03:54:40.608Z,66.44
2022-10-23T03:57:07.345Z,66.89
2022-10-23T03:59:34.143Z,66.16
2022-10-23T04:02:01.002Z,67.22
2022-10-23T04:04:27.820Z,67.25
2022-10-23T04:06:55.770Z,66.64
2022-10-23T04:09:22.770Z,65.72
2022-10-23T04:11:49.409Z,65.39
2022-10-23T04:14:16.639Z,65.58
2022-10-23T04:16:43.300Z,65.37
2022-10-23T04:19:10.208Z,64.79
2022-10-23T04:21:36.862Z,64.58
2022-10-23T04:24:05.754Z,64.28
2022-10-23T04:26:32.519Z,64.57
2022-10-23T04:28:59.282Z,64.09
2022-10-23T04:31:28.612Z,64.53
2022-10-23T04:33:55.494Z,65.42
2022-10-23T04:36:28.997Z,65.29
2022-10-23T04:38:58.739Z,65.00
2022-10-23T04:41:27.025Z,64.91
2022-10-23T04:43:53.666Z,65.20
2022-10-23T04:46:20.344Z,65.92
2022-10-23T04:48:48.494Z,65.80
2022-10-23T04:51:29.570Z,65.71
2022-10-23T04:54:38.005Z,66.14
2022-10-23T04:57:21.298Z,65.99
2022-10-23T05:00:06.088Z,65.35
2022-10-23T05:02:40.338Z,65.05
2022-10-23T05:05:08.079Z,65.84
2022-10-23T05:07:57.449Z,66.55
2022-10-23T05:10:47.904Z,66.55
2022-10-23T05:13:19.649Z,66.92
2022-10-23T05:15:48.279Z,66.56
2022-10-23T05:18:22.921Z,66.42
2022-10-23T05:20:52.131Z,66.93
2022-10-23T05:23:21.957Z,66.80
2022-10-23T05:25:55.217Z,66.16
2022-10-23T05:28:23.623Z,66.48
2022-10-23T05:30:51.378Z,66.87
2022-10-23T05:33:18.214Z,67.33
2022-10-23T05:35:45.560Z,67.05
2022-10-23T05:38:15.606Z,67.64
2022-10-23T05:40:43.475Z,67.38
2022-10-23T05:43:15.434Z,67.21
2022-10-23T05:45:50.729Z,66.76
2022-10-23T05:48:35.398Z,66.61
2022-10-23T05:51:10.844Z,66.50
2022-10-23T05:53:47.651Z,67.38
2022-10-23T05:56:30.751Z,67.15
2022-10-23T05:59:05.258Z,67.48
2022-10-23T06:01:53.706Z,66.43
2022-10-23T06:04:36.625Z,66.14
2022-10-23T06:07:25.135Z,67.06
2022-10-23T06:09:54.282Z,66.57
2022-10-23T06:12:21.939Z,67.01
2022-10-23T06:14:51.028Z,66.85
2022-10-23T06:17:20.175Z,67.21
2022-10-23T06:19:47.076Z,67.67
2022-10-23T06:22:17.355Z,66.71
2022-10-23T06:24:58.946Z,67.45
2022-10-23T06:27:27.219Z,67.76
2022-10-23T06:29:55.145Z,66.88
2022-10-23T06:32:23.334Z,67.34
2022-10-23T06:35:09.485Z,67.04
2022-10-23T06:37:36.169Z,66.53
2022-10-23T06:40:12.065Z,66.78
2022-10-23T06:42:59.009Z,66.40
2022-10-23T06:45:55.480Z,67.06
2022-10-23T06:48:46.970Z,66.83
2022-10-23T06:51:22.412Z,66.24
2022-10-23T06:53:49.879Z,65.98
2022-10-23T06:56:39.406Z,66.39
2022-10-23T06:59:08.033Z,66.77
2022-10-23T07:01:36.120Z,66.75
2022-10-23T07:04:07.562Z,66.09
2022-10-23T07:06:34.291Z,66.65
2022-10-23T07:09:01.328Z,65.76
2022-10-23T07:11:48.068Z,66.25
2022-10-23T07:14:15.030Z,65.87
2022-10-23T07:16:42.355Z,66.32
2022-10-23T07:19:11.247Z,65.64
2022-10-23T07:21:43.759Z,65.52
2022-10-23T07:24:31.914Z,65.84
2022-10-23T07:27:00.611Z,65.82
2022-10-23T07:29:29.052Z,65.66
2022-10-23T07:31:57.510Z,65.46
2022-10-23T07:35:04.064Z,65.48
2022-10-23T07:37:33.907Z,64.79
2022-10-23T07:40:03.094Z,64.71
2022-10-23T07:42:32.588Z,64.74
2022-10-23T07:44:59.251Z,64.36
2022-10-23T07:47:26.026Z,64.57
2022-10-23T07:49:53.012Z,64.07
2022-10-23T07:52:21.724Z,63.96
2022-10-23T07:55:09.245Z,63.58
2022-10-23T07:57:38.451Z,63.36
2022-10-23T08:00:27.871Z,63.26
2022-10-23T08:03:04.098Z,63.21
2022-10-23T08:05:31.941Z,62.91
2022-10-23T08:08:02.519Z,62.82
2022-10-23T08:10:30.277Z,62.22
2022-10-23T08:12:58.207Z,62.06
2022-10-23T08:15:45.227Z,62.00
2022-10-23T08:18:31.417Z,61.70
2022-10-23T08:21:02.058Z,61.53
2022-10-23T08:23:30.765Z,61.29
2022-10-23T08:25:59.048Z,61.08
2022-10-23T08:28:26.112Z,61.14
2022-10-23T08:30:55.871Z,60.67
2022-10-23T08:33:22.933Z,60.26
2022-10-23T08:35:50.757Z,60.54
2022-10-23T08:38:25.092Z,60.41
2022-10-23T08:40:53.824Z,60.20
2022-10-23T08:43:34.358Z,60.47
2022-10-23T08:46:17.762Z,60.25
2022-10-23T08:49:35.747Z,60.62
2022-10-23T08:52:14.106Z,59.40
2022-10-23T08:54:48.613Z,59.27
2022-10-23T08:57:18.476Z,59.50
2022-10-23T08:59:48.133Z,59.20
2022-10-23T09:02:20.453Z,58.10
2022-10-23T09:04:50.387Z,58.07
2022-10-23T09:07:34.021Z,58.08
2022-10-23T09:10:16.508Z,57.46
2022-10-23T09:12:44.597Z,58.14
2022-10-23T09:15:23.160Z,58.22
2022-10-23T09:17:55.981Z,57.97
2022-10-23T09:20:25.714Z,57.70
2022-10-23T09:22:55.087Z,57.62
2022-10-23T09:25:25.466Z,57.44
2022-10-23T09:27:57.441Z,56.95
2022-10-23T09:30:29.913Z,56.55
2022-10-23T09:32:56.587Z,56.30
2022-10-23T09:35:25.730Z,55.90
2022-10-23T09:37:55.773Z,55.60
2022-10-23T09:40:30.227Z,55.17
2022-10-23T09:43:00.584Z,54.82
2022-10-23T09:45:31.542Z,54.60
2022-10-23T09:48:11.656Z,53.99
2022-10-23T09:50:47.374Z,53.94
2022-10-23T09:53:17.128Z,53.69
2022-10-23T09:55:51.517Z,53.41
2022-10-23T09:58:25.064Z,53.09
2022-10-23T10:00:54.704Z,52.92
2022-10-23T10:03:37.706Z,52.05
2022-10-23T10:06:23.198Z,51.81
2022-10-23T10:08:53.343Z,51.80
2022-10-23T10:11:25.842Z,51.63
2022-10-23T10:14:06.832Z,51.68
2022-10-23T10:16:42.568Z,51.75
2022-10-23T10:19:20.047Z,51.54
2022-10-23T10:21:52.907Z,51.62
2022-10-23T10:24:25.901Z,51.34
2022-10-23T10:27:00.939Z,51.43
2022-10-23T10:29:43.917Z,51.59
2022-10-23T10:32:24.909Z,51.94
2022-10-23T10:34:58.902Z,52.11
2022-10-23T10:37:31.431Z,52.22
2022-10-23T10:40:02.965Z,52.43
2022-10-23T10:42:42.273Z,52.53
2022-10-23T10:45:19.745Z,52.32
2022-10-23T10:48:00.877Z,52.19
2022-10-23T10:50:42.699Z,51.27
2022-10-23T10:53:28.189Z,51.58
2022-10-23T10:55:57.395Z,51.77
2022-10-23T10:58:31.914Z,51.78
2022-10-23T11:01:03.913Z,51.79
2022-10-23T11:03:39.879Z,51.54
2022-10-23T11:06:15.216Z,49.88
2022-10-23T11:08:56.250Z,50.43
2022-10-23T11:11:31.514Z,51.53
2022-10-23T11:13:58.442Z,51.63
2022-10-23T11:16:30.684Z,51.86
2022-10-23T11:19:11.444Z,51.86
2022-10-23T11:21:44.797Z,52.01
2022-10-23T11:24:27.655Z,51.96
2022-10-23T11:27:19.255Z,51.73
2022-10-23T11:30:04.139Z,51.97
2022-10-23T11:33:14.934Z,51.74
2022-10-23T11:35:54.815Z,51.82
2022-10-23T11:38:27.125Z,51.97
2022-10-23T11:40:56.407Z,51.85
2022-10-23T11:43:28.397Z,51.81
2022-10-23T11:45:55.382Z,52.04
2022-10-23T11:48:35.517Z,51.99
2022-10-23T11:51:05.141Z,52.19
2022-10-23T11:53:40.269Z,52.14
2022-10-23T11:56:26.646Z,51.40
2022-10-23T11:58:55.692Z,51.87
2022-10-23T12:01:31.396Z,51.69
2022-10-23T12:04:03.886Z,51.66
2022-10-23T12:06:38.075Z,51.76
2022-10-23T12:09:08.075Z,51.99
2022-10-23T12:11:44.688Z,51.93
2022-10-23T12:14:27.796Z,51.97
2022-10-23T12:16:54.640Z,52.08
2022-10-23T12:19:25.097Z,52.48
2022-10-23T12:21:53.633Z,52.66
2022-10-23T12:24:49.172Z,52.65
2022-10-23T12:27:28.559Z,52.58
2022-10-23T12:30:09.513Z,52.74
2022-10-23T12:32:46.862Z,52.91
2022-10-23T12:35:27.749Z,52.91
2022-10-23T12:38:10.326Z,52.84
2022-10-23T12:40:37.334Z,52.96
2022-10-23T12:43:20.749Z,52.84
2022-10-23T12:45:48.045Z,52.84
2022-10-23T12:48:19.709Z,53.01
2022-10-23T12:50:51.106Z,52.82
2022-10-23T12:53:19.823Z,52.88
2022-10-23T12:55:48.044Z,52.64
2022-10-23T12:58:19.517Z,52.95
2022-10-23T13:00:51.496Z,52.92
2022-10-23T13:03:21.681Z,53.08
2022-10-23T13:05:51.497Z,52.95
2022-10-23T13:08:19.001Z,52.73
2022-10-23T13:11:06.743Z,52.72
2022-10-23T13:13:40.410Z,52.75
2022-10-23T13:16:14.461Z,52.56
2022-10-23T13:18:42.043Z,53.03
2022-10-23T13:21:17.967Z,52.63
2022-10-23T13:23:45.166Z,52.87
2022-10-23T13:26:28.668Z,52.65
2022-10-23T13:28:56.346Z,52.76
2022-10-23T13:31:26.888Z,52.77
2022-10-23T13:34:17.405Z,52.66
2022-10-23T13:37:23.556Z,52.88
2022-10-23T13:39:59.746Z,53.14
2022-10-23T13:42:26.492Z,53.26
2022-10-23T13:44:53.357Z,53.25
2022-10-23T13:47:20.645Z,53.20
2022-10-23T13:49:47.612Z,53.15
2022-10-23T13:52:19.323Z,53.35
2022-10-23T13:54:47.698Z,53.35
2022-10-23T13:57:15.756Z,53.41
2022-10-23T13:59:42.706Z,53.50
2022-10-23T14:02:18.668Z,53.36
2022-10-23T14:04:46.552Z,53.53
2022-10-23T14:07:13.522Z,53.63
2022-10-23T14:09:40.236Z,53.54
2022-10-23T14:12:08.662Z,53.60
2022-10-23T14:14:35.366Z,53.59
2022-10-23T14:17:01.981Z,53.75
2022-10-23T14:19:28.841Z,53.88
2022-10-23T14:21:55.771Z,54.21
2022-10-23T14:24:22.651Z,54.62
2022-10-23T14:26:49.402Z,54.96
2022-10-23T14:29:22.900Z,55.10
2022-10-23T14:31:50.951Z,55.30
2022-10-23T14:34:17.717Z,55.56
2022-10-23T14:36:50.284Z,55.69
2022-10-23T14:39:18.148Z,55.69
2022-10-23T14:41:45.070Z,56.03
2022-10-23T14:44:11.755Z,56.31
2022-10-23T14:46:39.888Z,56.61
2022-10-23T14:49:06.967Z,57.03
2022-10-23T14:51:33.829Z,57.22
2022-10-23T14:54:02.590Z,57.30
2022-10-23T14:56:29.859Z,57.54
2022-10-23T14:59:02.706Z,57.97
2022-10-23T15:01:30.124Z,57.96
2022-10-23T15:03:58.553Z,58.42
2022-10-23T15:06:25.690Z,58.54
2022-10-23T15:08:56.505Z,58.32
2022-10-23T15:11:24.861Z,58.46
2022-10-23T15:13:52.078Z,58.75
2022-10-23T15:16:18.990Z,58.68
2022-10-23T15:18:45.970Z,58.76
2022-10-23T15:21:14.838Z,59.02
2022-10-23T15:23:45.083Z,59.03
2022-10-23T15:26:14.322Z,59.10
2022-10-23T15:28:41.036Z,59.02
2022-10-23T15:31:24.140Z,59.21
2022-10-23T15:33:50.841Z,59.28
2022-10-23T15:36:19.104Z,59.38
2022-10-23T15:38:46.002Z,59.46
2022-10-23T15:41:15.395Z,59.30
2022-10-23T15:43:42.174Z,59.27
2022-10-23T15:46:09.080Z,59.53
2022-10-23T15:48:35.791Z,59.81
2022-10-23T15:51:02.530Z,59.83
2022-10-23T15:53:30.640Z,59.92
2022-10-23T15:55:58.780Z,60.15
2022-10-23T15:58:25.871Z,60.16
2022-10-23T16:00:52.669Z,60.08
2022-10-23T16:03:19.393Z,60.33
2022-10-23T16:05:46.286Z,60.61
2022-10-23T16:08:13.231Z,60.51
2022-10-23T16:10:42.287Z,60.54
2022-10-23T16:13:09.148Z,60.76
2022-10-23T16:15:36.251Z,60.69
2022-10-23T16:18:03.226Z,60.86
2022-10-23T16:20:30.455Z,60.85
2022-10-23T16:22:57.154Z,60.93
2022-10-23T16:25:24.124Z,61.07
2022-10-23T16:27:52.336Z,60.87
2022-10-23T16:30:21.383Z,61.00
2022-10-23T16:32:48.097Z,61.04
2022-10-23T16:35:14.822Z,61.15
2022-10-23T16:37:54.759Z,60.95
2022-10-23T16:40:21.438Z,61.24
2022-10-23T16:43:08.337Z,61.31
2022-10-23T16:45:45.267Z,61.43
2022-10-23T16:48:11.921Z,61.24
2022-10-23T16:53:06.227Z,61.34
2022-10-23T16:55:32.889Z,61.18
2022-10-23T16:58:00.745Z,61.26
2022-10-23T17:00:34.832Z,61.48
2022-10-23T17:03:02.703Z,61.74
2022-10-23T17:05:32.450Z,61.69
2022-10-23T17:07:59.121Z,61.83
2022-10-23T17:10:25.897Z,61.88
2022-10-23T17:12:52.608Z,61.88
2022-10-23T17:15:21.187Z,61.96
2022-10-23T17:17:49.371Z,62.12
2022-10-23T17:20:16.118Z,62.26
2022-10-23T17:22:42.921Z,62.57
2022-10-23T17:25:10.462Z,62.90
2022-10-23T17:27:37.354Z,63.03
2022-10-23T17:30:08.158Z,63.08
2022-10-23T17:32:37.331Z,63.16
2022-10-23T17:35:08.373Z,63.55
2022-10-23T17:37:35.319Z,63.42
2022-10-23T17:40:05.017Z,63.55
2022-10-23T17:42:31.974Z,63.52
2022-10-23T17:44:58.932Z,63.61
2022-10-23T17:47:25.614Z,63.59
2022-10-23T17:49:52.615Z,63.69
2022-10-23T17:52:20.598Z,63.59
2022-10-23T17:54:51.464Z,63.77
2022-10-23T17:57:18.195Z,63.47
2022-10-23T17:59:44.905Z,63.28
2022-10-23T18:02:13.683Z,63.49
2022-10-23T18:04:40.750Z,63.70
2022-10-23T18:07:07.558Z,63.82
2022-10-23T18:09:35.720Z,64.03
2022-10-23T18:12:02.537Z,63.84
2022-10-23T18:14:29.922Z,64.07
2022-10-23T18:16:56.829Z,64.02
2022-10-23T18:19:23.715Z,64.51
2022-10-23T18:21:50.392Z,64.20
2022-10-23T18:24:18.154Z,64.38
2022-10-23T18:26:48.113Z,64.60
2022-10-23T18:29:17.277Z,64.30
2022-10-23T18:31:45.331Z,64.57
2022-10-23T18:34:15.978Z,64.77
2022-10-23T18:36:43.005Z,64.90
2022-10-23T18:39:13.404Z,65.20
2022-10-23T18:41:42.881Z,65.42
2022-10-23T18:44:15.423Z,65.50
2022-10-23T18:46:42.443Z,65.38
2022-10-23T18:49:09.313Z,65.35
2022-10-23T18:51:37.014Z,65.86
2022-10-23T18:54:06.994Z,65.95
2022-10-23T18:56:35.837Z,66.09
2022-10-23T18:59:05.263Z,66.34
2022-10-23T19:01:34.769Z,66.20
2022-10-23T19:04:02.266Z,66.02
2022-10-23T19:06:29.905Z,65.90
2022-10-23T19:08:57.274Z,65.74
2022-10-23T19:11:26.454Z,65.54
2022-10-23T19:13:53.302Z,65.46
2022-10-23T19:16:25.873Z,65.44
2022-10-23T19:18:57.350Z,65.13
2022-10-23T19:21:31.119Z,65.20
2022-10-23T19:24:00.452Z,65.11
2022-10-23T19:26:27.813Z,65.12
2022-10-23T19:28:54.527Z,64.86
2022-10-23T19:31:23.358Z,64.82
2022-10-23T19:33:50.628Z,64.91
2022-10-23T19:36:23.032Z,64.68
2022-10-23T19:38:50.569Z,64.76
2022-10-23T19:41:18.842Z,64.76
2022-10-23T19:43:45.614Z,64.92
2022-10-23T19:46:12.623Z,64.56
2022-10-23T19:48:44.115Z,64.56
2022-10-23T19:51:12.998Z,64.57
2022-10-23T19:53:41.956Z,64.21
2022-10-23T19:56:10.949Z,64.19
2022-10-23T19:58:38.007Z,64.28
2022-10-23T20:01:10.498Z,63.85
2022-10-23T20:03:37.849Z,64.34
2022-10-23T20:06:07.632Z,64.43
2022-10-23T20:08:35.151Z,64.54
2022-10-23T20:11:03.582Z,64.48
2022-10-23T20:13:30.606Z,64.70
2022-10-23T20:15:57.432Z,64.54
2022-10-23T20:18:25.822Z,64.83
2022-10-23T20:20:53.199Z,64.86
2022-10-23T20:23:19.936Z,65.04
2022-10-23T20:25:46.683Z,64.75
2022-10-23T20:28:15.323Z,65.06
2022-10-23T20:30:42.648Z,64.92
2022-10-23T20:33:09.489Z,64.92
2022-10-23T20:35:40.384Z,64.70
2022-10-23T20:38:08.236Z,64.37
2022-10-23T20:40:35.735Z,64.51
2022-10-23T20:43:02.510Z,64.21
2022-10-23T20:45:30.624Z,64.47
2022-10-23T20:47:57.352Z,64.20
2022-10-23T20:50:24.114Z,64.32
2022-10-23T20:52:51.399Z,64.23
2022-10-23T20:55:18.972Z,64.14
2022-10-23T20:57:46.742Z,64.11
2022-10-23T21:00:15.246Z,64.02
2022-10-23T21:02:47.012Z,64.09
2022-10-23T21:05:15.790Z,63.75
2022-10-23T21:07:42.659Z,63.76
2022-10-23T21:10:09.589Z,63.76
2022-10-23T21:12:36.295Z,63.39
2022-10-23T21:15:03.052Z,63.10
2022-10-23T21:17:35.279Z,63.22
2022-10-23T21:20:04.245Z,63.22
2022-10-23T21:22:31.273Z,63.78
2022-10-23T21:25:00.153Z,63.69
2022-10-23T21:27:27.044Z,63.88
2022-10-23T21:29:53.872Z,63.94
2022-10-23T21:32:20.856Z,64.05
2022-10-23T21:34:47.617Z,63.87
2022-10-23T21:37:15.769Z,64.22
2022-10-23T21:39:43.710Z,63.90
2022-10-23T21:42:10.895Z,63.92
2022-10-23T21:44:37.621Z,63.98
2022-10-23T21:47:04.533Z,64.26
2022-10-23T21:49:31.539Z,64.21
2022-10-23T21:51:58.407Z,63.98
2022-10-23T21:54:26.695Z,64.53
2022-10-23T21:56:53.935Z,64.13
2022-10-23T21:59:22.672Z,64.50
2022-10-23T22:01:50.035Z,64.14
2022-10-23T22:04:18.538Z,64.05
2022-10-23T22:06:46.929Z,63.66
2022-10-23T22:09:15.327Z,63.88
2022-10-23T22:11:43.422Z,63.46
2022-10-23T22:14:10.238Z,63.02
2022-10-23T22:16:37.048Z,62.49
2022-10-23T22:19:04.070Z,62.32
2022-10-23T22:21:31.040Z,62.40
2022-10-23T22:23:59.566Z,61.82
2022-10-23T22:26:28.690Z,61.72
2022-10-23T22:28:59.385Z,60.46
2022-10-23T22:31:28.615Z,60.37
2022-10-23T22:33:56.207Z,60.45
2022-10-23T22:36:23.382Z,60.51
2022-10-23T22:38:50.331Z,60.38
2022-10-23T22:41:18.060Z,60.42
2022-10-23T22:43:45.010Z,60.24
2022-10-23T22:46:15.117Z,59.90
2022-10-23T22:48:42.259Z,59.71
2022-10-23T22:51:12.094Z,59.43
2022-10-23T22:53:38.903Z,59.48
2022-10-23T22:56:06.447Z,59.09
2022-10-23T22:58:33.530Z,58.59
2022-10-23T23:01:04.732Z,58.80
2022-10-23T23:03:34.623Z,58.81
2022-10-23T23:06:03.634Z,58.18
2022-10-23T23:08:30.138Z,58.50
2022-10-23T23:10:57.863Z,58.50
2022-10-23T23:13:25.525Z,58.24
2022-10-23T23:15:52.435Z,58.29
2022-10-23T23:18:19.559Z,58.06
2022-10-23T23:20:47.827Z,57.85
2022-10-23T23:23:15.355Z,57.93
2022-10-23T23:25:42.929Z,58.09
2022-10-23T23:28:11.904Z,58.14
2022-10-23T23:30:38.920Z,57.83
2022-10-23T23:33:05.624Z,58.08
2022-10-23T23:35:32.371Z,58.21
2022-10-23T23:38:00.614Z,58.17
2022-10-23T23:40:27.370Z,58.21
2022-10-23T23:42:54.007Z,58.25
2022-10-23T23:45:20.796Z,58.09
2022-10-23T23:47:47.781Z,58.45
2022-10-23T23:50:15.237Z,57.99
2022-10-23T23:52:42.074Z,58.07
2022-10-23T23:55:10.761Z,58.06
2022-10-23T23:57:37.501Z,58.42
